Airfield :
LOGIN :

Register | Disclaimer

   EN    FR    IT 

 










Legend :    VFR   Marginal VFR   IFR   Intensive IFR   Very Intensive IFR
Visi :
Ceiling :
>= 8 km
>= 3000ft
5 to 8 km
1000 to 3000 ft
1500m to 5 km
500 to 1000 ft
800 to 1500m
200 to 500 ft
< 800m
< 200 ft
Symbols :   Thunderstorms  Fog  Heavy snow  Heavy precipitations  Wind > 20 kt
SIGMETs :     Misc.  Thunderstorms  Icing  Turbulence  Mountain Waves  Volcanic Ashes






- Airport Elevation : 313 ft


LFQA - Reims-Prunay

CURRENT METAR :
  • 141200Z AUTO 25009KT 210V290 9999 FEW030 SCT035 OVC056 20/14 Q1008

EXPIRED METARs :
  • 141130Z AUTO 23014KT 200V270 9999 FEW029 SCT035 BKN046 19/13 Q1008
  • 141100Z AUTO 22011KT 180V240 9999 BKN028 BKN038 BKN045 19/13 Q1008
  • 141030Z AUTO 20011KT 9999 BKN025 BKN042 OVC050 18/13 Q1008
  • 141000Z AUTO 20009KT 170V240 9999 BKN019 BKN025 OVC048 18/14 Q1008
  • 140930Z AUTO 19009KT 160V220 9999 BKN017 BKN022 BKN034 17/14 Q1008
  • 140900Z AUTO 19011KT 9999 BKN013 BKN026 OVC050 17/14 Q1008
  • 140830Z AUTO 17008KT 9999 OVC010 15/13 Q1008
  • 140800Z AUTO 18009KT 150V210 7000 OVC008 14/13 Q1009
  • 140730Z AUTO 18009KT 140V220 9999 OVC009 14/13 Q1009

TAF N/A



MET'MAP, your aeronautical weather chart ! - Copyright ORBIFLY December 2007 - Disclaimer

ORBIFLY MET'MAP TEAM :

Programming & Development : Alexandra Zaïnal
Original concept : Baudouin d'Aumeries
Technical & hardware support : Manuel Goepfert
Assistance : Marc-Olivier Méhu




SOURCES & CREDITS :

   NOAA